<?xml version="1.0" encoding="UTF-8"?>
<gpx
 version="1.0"
creator="GPSBabel - http://www.gpsbabel.org"
xmlns:xsi="http://www.w3.org/2001/XMLSchema-instance"
xmlns="http://www.topografix.com/GPX/1/0"
xsi:schemaLocation="http://www.topografix.com/GPX/1/0 http://www.topografix.com/GPX/1/0/gpx.xsd">
<time>2015-09-27T13:41:23Z</time>
<bounds minlat="44.819303430" minlon="6.735245100" maxlat="44.826370040" maxlon="6.741956820"/>
<trk>
<trkseg>
<trkpt lat="44.819303430" lon="6.735276780">
  <ele>2353.399902</ele>
<time>2015-09-24T12:10:57Z</time>
</trkpt>
<trkpt lat="44.819386750" lon="6.735316680">
  <ele>2353.899902</ele>
<time>2015-09-24T12:11:32Z</time>
</trkpt>
<trkpt lat="44.819471740" lon="6.735313490">
  <ele>2355.199951</ele>
<time>2015-09-24T12:11:43Z</time>
</trkpt>
<trkpt lat="44.819553380" lon="6.735353390">
  <ele>2355.800048</ele>
<time>2015-09-24T12:11:52Z</time>
</trkpt>
<trkpt lat="44.819623450" lon="6.735283490">
  <ele>2355.500000</ele>
<time>2015-09-24T12:12:01Z</time>
</trkpt>
<trkpt lat="44.819701740" lon="6.735311820">
  <ele>2355.800048</ele>
<time>2015-09-24T12:12:08Z</time>
</trkpt>
<trkpt lat="44.819696710" lon="6.735428490">
  <ele>2356.300048</ele>
<time>2015-09-24T12:12:29Z</time>
</trkpt>
<trkpt lat="44.819710120" lon="6.735543490">
  <ele>2357.500000</ele>
<time>2015-09-24T12:12:37Z</time>
</trkpt>
<trkpt lat="44.819741800" lon="6.735661680">
  <ele>2358.500000</ele>
<time>2015-09-24T12:12:49Z</time>
</trkpt>
<trkpt lat="44.819776670" lon="6.735773490">
  <ele>2359.600097</ele>
<time>2015-09-24T12:12:58Z</time>
</trkpt>
<trkpt lat="44.819838360" lon="6.735865020">
  <ele>2361.899902</ele>
<time>2015-09-24T12:13:08Z</time>
</trkpt>
<trkpt lat="44.819891670" lon="6.735953370">
  <ele>2363.600097</ele>
<time>2015-09-24T12:13:17Z</time>
</trkpt>
<trkpt lat="44.819978340" lon="6.735980020">
  <ele>2364.899902</ele>
<time>2015-09-24T12:13:25Z</time>
</trkpt>
<trkpt lat="44.820056790" lon="6.736028470">
  <ele>2365.600097</ele>
<time>2015-09-24T12:13:34Z</time>
</trkpt>
<trkpt lat="44.820125020" lon="6.736108430">
  <ele>2366.800048</ele>
<time>2015-09-24T12:13:45Z</time>
</trkpt>
<trkpt lat="44.820170120" lon="6.736210020">
  <ele>2368.699951</ele>
<time>2015-09-24T12:14:16Z</time>
</trkpt>
<trkpt lat="44.820220070" lon="6.736305070">
  <ele>2369.100097</ele>
<time>2015-09-24T12:14:24Z</time>
</trkpt>
<trkpt lat="44.820253430" lon="6.736418390">
  <ele>2370.600097</ele>
<time>2015-09-24T12:14:36Z</time>
</trkpt>
<trkpt lat="44.820290150" lon="6.736530040">
  <ele>2373.399902</ele>
<time>2015-09-24T12:14:48Z</time>
</trkpt>
<trkpt lat="44.820308420" lon="6.736643370">
  <ele>2375.300048</ele>
<time>2015-09-24T12:14:57Z</time>
</trkpt>
<trkpt lat="44.820315130" lon="6.736766750">
  <ele>2376.000000</ele>
<time>2015-09-24T12:15:05Z</time>
</trkpt>
<trkpt lat="44.820350160" lon="6.736881750">
  <ele>2376.600097</ele>
<time>2015-09-24T12:15:13Z</time>
</trkpt>
<trkpt lat="44.820355020" lon="6.736998420">
  <ele>2378.000000</ele>
<time>2015-09-24T12:15:26Z</time>
</trkpt>
<trkpt lat="44.820390060" lon="6.737105040">
  <ele>2378.600097</ele>
<time>2015-09-24T12:15:33Z</time>
</trkpt>
<trkpt lat="44.820426770" lon="6.737210150">
  <ele>2379.699951</ele>
<time>2015-09-24T12:15:41Z</time>
</trkpt>
<trkpt lat="44.820483430" lon="6.737296820">
  <ele>2379.399902</ele>
<time>2015-09-24T12:15:50Z</time>
</trkpt>
<trkpt lat="44.820543450" lon="6.737366720">
  <ele>2378.899902</ele>
<time>2015-09-24T12:15:58Z</time>
</trkpt>
<trkpt lat="44.820591730" lon="6.737470160">
  <ele>2380.199951</ele>
<time>2015-09-24T12:16:09Z</time>
</trkpt>
<trkpt lat="44.820623410" lon="6.737586660">
  <ele>2382.800048</ele>
<time>2015-09-24T12:16:25Z</time>
</trkpt>
<trkpt lat="44.820693480" lon="6.737665120">
  <ele>2385.399902</ele>
<time>2015-09-24T12:16:41Z</time>
</trkpt>
<trkpt lat="44.820775120" lon="6.737716750">
  <ele>2387.899902</ele>
<time>2015-09-24T12:16:56Z</time>
</trkpt>
<trkpt lat="44.820855090" lon="6.737765030">
  <ele>2391.300048</ele>
<time>2015-09-24T12:17:13Z</time>
</trkpt>
<trkpt lat="44.820936730" lon="6.737720100">
  <ele>2396.500000</ele>
<time>2015-09-24T12:17:30Z</time>
</trkpt>
<trkpt lat="44.821015010" lon="6.737780120">
  <ele>2401.199951</ele>
<time>2015-09-24T12:18:04Z</time>
</trkpt>
<trkpt lat="44.821081730" lon="6.737860080">
  <ele>2403.500000</ele>
<time>2015-09-24T12:18:17Z</time>
</trkpt>
<trkpt lat="44.821168400" lon="6.737856730">
  <ele>2405.100097</ele>
<time>2015-09-24T12:18:29Z</time>
</trkpt>
<trkpt lat="44.821250040" lon="6.737905010">
  <ele>2406.600097</ele>
<time>2015-09-24T12:18:43Z</time>
</trkpt>
<trkpt lat="44.821313410" lon="6.737990000">
  <ele>2409.399902</ele>
<time>2015-09-24T12:19:00Z</time>
</trkpt>
<trkpt lat="44.821401750" lon="6.738003410">
  <ele>2412.399902</ele>
<time>2015-09-24T12:19:14Z</time>
</trkpt>
<trkpt lat="44.821483390" lon="6.738050020">
  <ele>2415.100097</ele>
<time>2015-09-24T12:19:30Z</time>
</trkpt>
<trkpt lat="44.821488420" lon="6.738170050">
  <ele>2420.000000</ele>
<time>2015-09-24T12:19:56Z</time>
</trkpt>
<trkpt lat="44.821568390" lon="6.738211790">
  <ele>2421.899902</ele>
<time>2015-09-24T12:20:09Z</time>
</trkpt>
<trkpt lat="44.821600070" lon="6.738320080">
  <ele>2423.699951</ele>
<time>2015-09-24T12:21:05Z</time>
</trkpt>
<trkpt lat="44.821645000" lon="6.738428380">
  <ele>2424.399902</ele>
<time>2015-09-24T12:21:14Z</time>
</trkpt>
<trkpt lat="44.821696800" lon="6.738525100">
  <ele>2424.899902</ele>
<time>2015-09-24T12:21:23Z</time>
</trkpt>
<trkpt lat="44.821766700" lon="6.738596680">
  <ele>2425.399902</ele>
<time>2015-09-24T12:21:33Z</time>
</trkpt>
<trkpt lat="44.821811800" lon="6.738701790">
  <ele>2427.300048</ele>
<time>2015-09-24T12:22:02Z</time>
</trkpt>
<trkpt lat="44.821878350" lon="6.738776730">
  <ele>2429.000000</ele>
<time>2015-09-24T12:22:14Z</time>
</trkpt>
<trkpt lat="44.821950100" lon="6.738840090">
  <ele>2429.300048</ele>
<time>2015-09-24T12:22:24Z</time>
</trkpt>
<trkpt lat="44.822021680" lon="6.738911680">
  <ele>2430.100097</ele>
<time>2015-09-24T12:22:36Z</time>
</trkpt>
<trkpt lat="44.822086720" lon="6.738983420">
  <ele>2431.399902</ele>
<time>2015-09-24T12:22:48Z</time>
</trkpt>
<trkpt lat="44.822156800" lon="6.739043440">
  <ele>2431.300048</ele>
<time>2015-09-24T12:22:57Z</time>
</trkpt>
<trkpt lat="44.822211780" lon="6.739128430">
  <ele>2431.699951</ele>
<time>2015-09-24T12:23:06Z</time>
</trkpt>
<trkpt lat="44.822276830" lon="6.739211750">
  <ele>2432.800048</ele>
<time>2015-09-24T12:23:17Z</time>
</trkpt>
<trkpt lat="44.822328460" lon="6.739311830">
  <ele>2434.399902</ele>
<time>2015-09-24T12:23:31Z</time>
</trkpt>
<trkpt lat="44.822388470" lon="6.739405030">
  <ele>2436.000000</ele>
<time>2015-09-24T12:23:44Z</time>
</trkpt>
<trkpt lat="44.822408420" lon="6.739518360">
  <ele>2437.699951</ele>
<time>2015-09-24T12:24:00Z</time>
</trkpt>
<trkpt lat="44.822415130" lon="6.739643420">
  <ele>2438.300048</ele>
<time>2015-09-24T12:24:09Z</time>
</trkpt>
<trkpt lat="44.822403390" lon="6.739766800">
  <ele>2440.100097</ele>
<time>2015-09-24T12:24:20Z</time>
</trkpt>
<trkpt lat="44.822410100" lon="6.739890010">
  <ele>2441.100097</ele>
<time>2015-09-24T12:24:30Z</time>
</trkpt>
<trkpt lat="44.822406750" lon="6.740010040">
  <ele>2442.500000</ele>
<time>2015-09-24T12:24:41Z</time>
</trkpt>
<trkpt lat="44.822391830" lon="6.740128390">
  <ele>2445.500000</ele>
<time>2015-09-24T12:24:58Z</time>
</trkpt>
<trkpt lat="44.822351760" lon="6.740233330">
  <ele>2450.100097</ele>
<time>2015-09-24T12:25:19Z</time>
</trkpt>
<trkpt lat="44.822363490" lon="6.740358390">
  <ele>2451.899902</ele>
<time>2015-09-24T12:25:42Z</time>
</trkpt>
<trkpt lat="44.822348410" lon="6.740476740">
  <ele>2454.600097</ele>
<time>2015-09-24T12:25:58Z</time>
</trkpt>
<trkpt lat="44.822330130" lon="6.740595100">
  <ele>2456.899902</ele>
<time>2015-09-24T12:26:14Z</time>
</trkpt>
<trkpt lat="44.822340030" lon="6.740720160">
  <ele>2458.399902</ele>
<time>2015-09-24T12:26:28Z</time>
</trkpt>
<trkpt lat="44.822360140" lon="6.740838340">
  <ele>2460.800048</ele>
<time>2015-09-24T12:26:43Z</time>
</trkpt>
<trkpt lat="44.822393330" lon="6.740955020">
  <ele>2463.300048</ele>
<time>2015-09-24T12:27:00Z</time>
</trkpt>
<trkpt lat="44.822408420" lon="6.741078400">
  <ele>2465.699951</ele>
<time>2015-09-24T12:27:17Z</time>
</trkpt>
<trkpt lat="44.822390150" lon="6.741196750">
  <ele>2469.100097</ele>
<time>2015-09-24T12:27:37Z</time>
</trkpt>
<trkpt lat="44.822396690" lon="6.741318460">
  <ele>2472.899902</ele>
<time>2015-09-24T12:27:57Z</time>
</trkpt>
<trkpt lat="44.822448490" lon="6.741421720">
  <ele>2476.000000</ele>
<time>2015-09-24T12:28:13Z</time>
</trkpt>
<trkpt lat="44.822526770" lon="6.741473350">
  <ele>2477.000000</ele>
<time>2015-09-24T12:28:25Z</time>
</trkpt>
<trkpt lat="44.822600030" lon="6.741543430">
  <ele>2478.199951</ele>
<time>2015-09-24T12:28:37Z</time>
</trkpt>
<trkpt lat="44.822686700" lon="6.741551810">
  <ele>2479.000000</ele>
<time>2015-09-24T12:28:47Z</time>
</trkpt>
<trkpt lat="44.822760130" lon="6.741623390">
  <ele>2480.199951</ele>
<time>2015-09-24T12:29:28Z</time>
</trkpt>
<trkpt lat="44.822836740" lon="6.741688430">
  <ele>2481.100097</ele>
<time>2015-09-24T12:29:38Z</time>
</trkpt>
<trkpt lat="44.822910160" lon="6.741750120">
  <ele>2480.600097</ele>
<time>2015-09-24T12:29:52Z</time>
</trkpt>
<trkpt lat="44.822993480" lon="6.741763370">
  <ele>2481.199951</ele>
<time>2015-09-24T12:30:16Z</time>
</trkpt>
<trkpt lat="44.823078470" lon="6.741781810">
  <ele>2482.100097</ele>
<time>2015-09-24T12:30:27Z</time>
</trkpt>
<trkpt lat="44.823155080" lon="6.741843330">
  <ele>2481.899902</ele>
<time>2015-09-24T12:32:25Z</time>
</trkpt>
<trkpt lat="44.823236720" lon="6.741855060">
  <ele>2480.600097</ele>
<time>2015-09-24T12:32:32Z</time>
</trkpt>
<trkpt lat="44.823321710" lon="6.741880040">
  <ele>2478.800048</ele>
<time>2015-09-24T12:32:40Z</time>
</trkpt>
<trkpt lat="44.823403350" lon="6.741845010">
  <ele>2478.000000</ele>
<time>2015-09-24T12:32:48Z</time>
</trkpt>
<trkpt lat="44.823483480" lon="6.741816680">
  <ele>2476.500000</ele>
<time>2015-09-24T12:32:56Z</time>
</trkpt>
<trkpt lat="44.823570150" lon="6.741821710">
  <ele>2476.500000</ele>
<time>2015-09-24T12:33:08Z</time>
</trkpt>
<trkpt lat="44.823658330" lon="6.741798400">
  <ele>2478.600097</ele>
<time>2015-09-24T12:33:21Z</time>
</trkpt>
<trkpt lat="44.823741810" lon="6.741773430">
  <ele>2477.899902</ele>
<time>2015-09-24T12:33:36Z</time>
</trkpt>
<trkpt lat="44.823821780" lon="6.741726820">
  <ele>2476.699951</ele>
<time>2015-09-24T12:33:53Z</time>
</trkpt>
<trkpt lat="44.823905090" lon="6.741765040">
  <ele>2478.399902</ele>
<time>2015-09-24T12:34:07Z</time>
</trkpt>
<trkpt lat="44.823990090" lon="6.741785160">
  <ele>2480.800048</ele>
<time>2015-09-24T12:34:24Z</time>
</trkpt>
<trkpt lat="44.824076760" lon="6.741780130">
  <ele>2481.399902</ele>
<time>2015-09-24T12:34:35Z</time>
</trkpt>
<trkpt lat="44.824165100" lon="6.741758340">
  <ele>2483.600097</ele>
<time>2015-09-24T12:34:52Z</time>
</trkpt>
<trkpt lat="44.824253450" lon="6.741753480">
  <ele>2485.500000</ele>
<time>2015-09-24T12:35:13Z</time>
</trkpt>
<trkpt lat="44.824338440" lon="6.741728330">
  <ele>2489.199951</ele>
<time>2015-09-24T12:35:36Z</time>
</trkpt>
<trkpt lat="44.824425110" lon="6.741745090">
  <ele>2492.100097</ele>
<time>2015-09-24T12:35:57Z</time>
</trkpt>
<trkpt lat="44.824513450" lon="6.741763370">
  <ele>2496.399902</ele>
<time>2015-09-24T12:36:48Z</time>
</trkpt>
<trkpt lat="44.824595090" lon="6.741810140">
  <ele>2498.100097</ele>
<time>2015-09-24T12:37:04Z</time>
</trkpt>
<trkpt lat="44.824681760" lon="6.741833440">
  <ele>2501.199951</ele>
<time>2015-09-24T12:37:24Z</time>
</trkpt>
<trkpt lat="44.824755020" lon="6.741906700">
  <ele>2504.899902</ele>
<time>2015-09-24T12:37:45Z</time>
</trkpt>
<trkpt lat="44.824836830" lon="6.741943410">
  <ele>2508.600097</ele>
<time>2015-09-24T12:38:05Z</time>
</trkpt>
<trkpt lat="44.824920140" lon="6.741901670">
  <ele>2513.300048</ele>
<time>2015-09-24T12:38:39Z</time>
</trkpt>
<trkpt lat="44.825006810" lon="6.741926810">
  <ele>2518.699951</ele>
<time>2015-09-24T12:39:08Z</time>
</trkpt>
<trkpt lat="44.825090130" lon="6.741886750">
  <ele>2523.199951</ele>
<time>2015-09-24T12:39:35Z</time>
</trkpt>
<trkpt lat="44.825176800" lon="6.741901670">
  <ele>2526.800048</ele>
<time>2015-09-24T12:39:53Z</time>
</trkpt>
<trkpt lat="44.825260110" lon="6.741863450">
  <ele>2532.000000</ele>
<time>2015-09-24T12:40:19Z</time>
</trkpt>
<trkpt lat="44.825346780" lon="6.741858420">
  <ele>2538.100097</ele>
<time>2015-09-24T12:40:45Z</time>
</trkpt>
<trkpt lat="44.825435130" lon="6.741861770">
  <ele>2543.100097</ele>
<time>2015-09-24T12:41:08Z</time>
</trkpt>
<trkpt lat="44.825520120" lon="6.741835120">
  <ele>2549.300048</ele>
<time>2015-09-24T12:41:39Z</time>
</trkpt>
<trkpt lat="44.825608460" lon="6.741825060">
  <ele>2557.300048</ele>
<time>2015-09-24T12:45:45Z</time>
</trkpt>
<trkpt lat="44.825693460" lon="6.741816680">
  <ele>2565.000000</ele>
<time>2015-09-24T12:46:19Z</time>
</trkpt>
<trkpt lat="44.825775100" lon="6.741853390">
  <ele>2568.399902</ele>
<time>2015-09-24T12:46:43Z</time>
</trkpt>
<trkpt lat="44.825861770" lon="6.741843330">
  <ele>2573.600097</ele>
<time>2015-09-24T12:47:59Z</time>
</trkpt>
<trkpt lat="44.825950110" lon="6.741828410">
  <ele>2578.500000</ele>
<time>2015-09-24T12:48:13Z</time>
</trkpt>
<trkpt lat="44.826033430" lon="6.741855060">
  <ele>2581.600097</ele>
<time>2015-09-24T12:48:31Z</time>
</trkpt>
<trkpt lat="44.826111710" lon="6.741845010">
  <ele>2585.899902</ele>
<time>2015-09-24T12:49:20Z</time>
</trkpt>
<trkpt lat="44.826198380" lon="6.741820030">
  <ele>2591.300048</ele>
<time>2015-09-24T12:50:01Z</time>
</trkpt>
<trkpt lat="44.826281700" lon="6.741775100">
  <ele>2597.199951</ele>
<time>2015-09-24T12:50:50Z</time>
</trkpt>
<trkpt lat="44.826370040" lon="6.741771750">
  <ele>2600.800048</ele>
<time>2015-09-24T12:51:11Z</time>
</trkpt>
<trkpt lat="44.826239960" lon="6.741779290">
  <ele>2598.000000</ele>
<time>2015-09-24T13:03:53Z</time>
</trkpt>
<trkpt lat="44.826185140" lon="6.741830090">
  <ele>2593.300048</ele>
<time>2015-09-24T13:05:18Z</time>
</trkpt>
<trkpt lat="44.825991520" lon="6.741867130">
  <ele>2581.000000</ele>
<time>2015-09-24T13:06:46Z</time>
</trkpt>
<trkpt lat="44.825906690" lon="6.741838470">
  <ele>2578.300048</ele>
<time>2015-09-24T13:07:05Z</time>
</trkpt>
<trkpt lat="44.825838460" lon="6.741840150">
  <ele>2573.800048</ele>
<time>2015-09-24T13:07:48Z</time>
</trkpt>
<trkpt lat="44.825751800" lon="6.741856740">
  <ele>2569.000000</ele>
<time>2015-09-24T13:08:11Z</time>
</trkpt>
<trkpt lat="44.825665130" lon="6.741843330">
  <ele>2563.500000</ele>
<time>2015-09-24T13:08:52Z</time>
</trkpt>
<trkpt lat="44.825583490" lon="6.741825060">
  <ele>2557.899902</ele>
<time>2015-09-24T13:09:39Z</time>
</trkpt>
<trkpt lat="44.825495140" lon="6.741841820">
  <ele>2552.800048</ele>
<time>2015-09-24T13:10:04Z</time>
</trkpt>
<trkpt lat="44.825410150" lon="6.741880040">
  <ele>2547.100097</ele>
<time>2015-09-24T13:10:49Z</time>
</trkpt>
<trkpt lat="44.825325160" lon="6.741868480">
  <ele>2542.899902</ele>
<time>2015-09-24T13:11:01Z</time>
</trkpt>
<trkpt lat="44.825238490" lon="6.741841820">
  <ele>2539.300048</ele>
<time>2015-09-24T13:11:20Z</time>
</trkpt>
<trkpt lat="44.825168410" lon="6.741913400">
  <ele>2535.100097</ele>
<time>2015-09-24T13:11:42Z</time>
</trkpt>
<trkpt lat="44.825108400" lon="6.741901670">
  <ele>2531.399902</ele>
<time>2015-09-24T13:12:26Z</time>
</trkpt>
<trkpt lat="44.825021730" lon="6.741935030">
  <ele>2525.699951</ele>
<time>2015-09-24T13:12:44Z</time>
</trkpt>
<trkpt lat="44.824945120" lon="6.741873340">
  <ele>2521.300048</ele>
<time>2015-09-24T13:13:15Z</time>
</trkpt>
<trkpt lat="44.824888460" lon="6.741956820">
  <ele>2517.300048</ele>
<time>2015-09-24T13:13:43Z</time>
</trkpt>
<trkpt lat="44.824801790" lon="6.741953470">
  <ele>2513.399902</ele>
<time>2015-09-24T13:14:08Z</time>
</trkpt>
<trkpt lat="44.824718470" lon="6.741910050">
  <ele>2509.500000</ele>
<time>2015-09-24T13:14:27Z</time>
</trkpt>
<trkpt lat="44.824651750" lon="6.741835120">
  <ele>2506.000000</ele>
<time>2015-09-24T13:14:43Z</time>
</trkpt>
<trkpt lat="44.824570110" lon="6.741810140">
  <ele>2502.399902</ele>
<time>2015-09-24T13:15:02Z</time>
</trkpt>
<trkpt lat="44.824483450" lon="6.741776780">
  <ele>2500.199951</ele>
<time>2015-09-24T13:15:12Z</time>
</trkpt>
<trkpt lat="44.824395100" lon="6.741768400">
  <ele>2497.199951</ele>
<time>2015-09-24T13:15:23Z</time>
</trkpt>
<trkpt lat="44.824306750" lon="6.741765040">
  <ele>2494.000000</ele>
<time>2015-09-24T13:15:34Z</time>
</trkpt>
<trkpt lat="44.824221760" lon="6.741761690">
  <ele>2490.800048</ele>
<time>2015-09-24T13:15:48Z</time>
</trkpt>
<trkpt lat="44.824138450" lon="6.741793370">
  <ele>2487.399902</ele>
<time>2015-09-24T13:16:01Z</time>
</trkpt>
<trkpt lat="44.824050100" lon="6.741813490">
  <ele>2484.500000</ele>
<time>2015-09-24T13:16:12Z</time>
</trkpt>
<trkpt lat="44.823966780" lon="6.741810140">
  <ele>2483.500000</ele>
<time>2015-09-24T13:16:19Z</time>
</trkpt>
<trkpt lat="44.823886820" lon="6.741786670">
  <ele>2481.199951</ele>
<time>2015-09-24T13:16:30Z</time>
</trkpt>
<trkpt lat="44.823810040" lon="6.741761690">
  <ele>2479.300048</ele>
<time>2015-09-24T13:16:37Z</time>
</trkpt>
<trkpt lat="44.823723370" lon="6.741783480">
  <ele>2480.100097</ele>
<time>2015-09-24T13:16:51Z</time>
</trkpt>
<trkpt lat="44.823640060" lon="6.741808460">
  <ele>2480.899902</ele>
<time>2015-09-24T13:17:02Z</time>
</trkpt>
<trkpt lat="44.823553390" lon="6.741838470">
  <ele>2478.500000</ele>
<time>2015-09-24T13:17:18Z</time>
</trkpt>
<trkpt lat="44.823473430" lon="6.741851710">
  <ele>2477.699951</ele>
<time>2015-09-24T13:17:25Z</time>
</trkpt>
<trkpt lat="44.823391790" lon="6.741876690">
  <ele>2478.899902</ele>
<time>2015-09-24T13:17:33Z</time>
</trkpt>
<trkpt lat="44.823306790" lon="6.741915080">
  <ele>2479.600097</ele>
<time>2015-09-24T13:17:43Z</time>
</trkpt>
<trkpt lat="44.823226660" lon="6.741881720">
  <ele>2481.300048</ele>
<time>2015-09-24T13:17:52Z</time>
</trkpt>
<trkpt lat="44.823140160" lon="6.741853390">
  <ele>2483.600097</ele>
<time>2015-09-24T13:18:14Z</time>
</trkpt>
<trkpt lat="44.823073440" lon="6.741776780">
  <ele>2484.199951</ele>
<time>2015-09-24T13:18:29Z</time>
</trkpt>
<trkpt lat="44.822993480" lon="6.741770070">
  <ele>2483.699951</ele>
<time>2015-09-24T13:18:36Z</time>
</trkpt>
<trkpt lat="44.822920050" lon="6.741716760">
  <ele>2484.300048</ele>
<time>2015-09-24T13:18:43Z</time>
</trkpt>
<trkpt lat="44.822838410" lon="6.741666810">
  <ele>2483.300048</ele>
<time>2015-09-24T13:18:55Z</time>
</trkpt>
<trkpt lat="44.822770020" lon="6.741590030">
  <ele>2482.500000</ele>
<time>2015-09-24T13:19:03Z</time>
</trkpt>
<trkpt lat="44.822705140" lon="6.741525150">
  <ele>2482.100097</ele>
<time>2015-09-24T13:19:11Z</time>
</trkpt>
<trkpt lat="44.822628360" lon="6.741496820">
  <ele>2482.199951</ele>
<time>2015-09-24T13:19:18Z</time>
</trkpt>
<trkpt lat="44.822566670" lon="6.741425070">
  <ele>2482.199951</ele>
<time>2015-09-24T13:19:25Z</time>
</trkpt>
<trkpt lat="44.822488380" lon="6.741365060">
  <ele>2481.399902</ele>
<time>2015-09-24T13:19:33Z</time>
</trkpt>
<trkpt lat="44.822451670" lon="6.741260120">
  <ele>2479.800048</ele>
<time>2015-09-24T13:19:40Z</time>
</trkpt>
<trkpt lat="44.822425020" lon="6.741140090">
  <ele>2477.500000</ele>
<time>2015-09-24T13:19:51Z</time>
</trkpt>
<trkpt lat="44.822438430" lon="6.741018380">
  <ele>2474.100097</ele>
<time>2015-09-24T13:20:05Z</time>
</trkpt>
<trkpt lat="44.822433400" lon="6.740898350">
  <ele>2471.500000</ele>
<time>2015-09-24T13:20:16Z</time>
</trkpt>
<trkpt lat="44.822405070" lon="6.740778490">
  <ele>2468.199951</ele>
<time>2015-09-24T13:20:26Z</time>
</trkpt>
<trkpt lat="44.822388470" lon="6.740658460">
  <ele>2467.100097</ele>
<time>2015-09-24T13:20:36Z</time>
</trkpt>
<trkpt lat="44.822371710" lon="6.740543460">
  <ele>2464.699951</ele>
<time>2015-09-24T13:20:45Z</time>
</trkpt>
<trkpt lat="44.822383440" lon="6.740423440">
  <ele>2462.399902</ele>
<time>2015-09-24T13:20:56Z</time>
</trkpt>
<trkpt lat="44.822401720" lon="6.740301730">
  <ele>2458.800048</ele>
<time>2015-09-24T13:21:08Z</time>
</trkpt>
<trkpt lat="44.822365000" lon="6.740188410">
  <ele>2455.899902</ele>
<time>2015-09-24T13:21:20Z</time>
</trkpt>
<trkpt lat="44.822415130" lon="6.740101740">
  <ele>2453.199951</ele>
<time>2015-09-24T13:21:43Z</time>
</trkpt>
<trkpt lat="44.822461730" lon="6.739998470">
  <ele>2450.300048</ele>
<time>2015-09-24T13:21:52Z</time>
</trkpt>
<trkpt lat="44.822456700" lon="6.739878440">
  <ele>2448.899902</ele>
<time>2015-09-24T13:22:00Z</time>
</trkpt>
<trkpt lat="44.822455020" lon="6.739751710">
  <ele>2448.100097</ele>
<time>2015-09-24T13:22:08Z</time>
</trkpt>
<trkpt lat="44.822450000" lon="6.739636710">
  <ele>2448.100097</ele>
<time>2015-09-24T13:22:15Z</time>
</trkpt>
<trkpt lat="44.822445130" lon="6.739513330">
  <ele>2446.800048</ele>
<time>2015-09-24T13:22:23Z</time>
</trkpt>
<trkpt lat="44.822420160" lon="6.739405030">
  <ele>2447.199951</ele>
<time>2015-09-24T13:22:30Z</time>
</trkpt>
<trkpt lat="44.822378410" lon="6.739295060">
  <ele>2445.699951</ele>
<time>2015-09-24T13:22:38Z</time>
</trkpt>
<trkpt lat="44.822315050" lon="6.739225160">
  <ele>2444.500000</ele>
<time>2015-09-24T13:22:45Z</time>
</trkpt>
<trkpt lat="44.822268440" lon="6.739128430">
  <ele>2441.600097</ele>
<time>2015-09-24T13:22:54Z</time>
</trkpt>
<trkpt lat="44.822201720" lon="6.739045120">
  <ele>2439.500000</ele>
<time>2015-09-24T13:23:02Z</time>
</trkpt>
<trkpt lat="44.822141710" lon="6.738973370">
  <ele>2438.300048</ele>
<time>2015-09-24T13:23:09Z</time>
</trkpt>
<trkpt lat="44.822068450" lon="6.738900110">
  <ele>2437.100097</ele>
<time>2015-09-24T13:23:17Z</time>
</trkpt>
<trkpt lat="44.821995030" lon="6.738843450">
  <ele>2434.300048</ele>
<time>2015-09-24T13:23:25Z</time>
</trkpt>
<trkpt lat="44.821920090" lon="6.738773370">
  <ele>2432.399902</ele>
<time>2015-09-24T13:23:32Z</time>
</trkpt>
<trkpt lat="44.821856720" lon="6.738698440">
  <ele>2431.300048</ele>
<time>2015-09-24T13:23:39Z</time>
</trkpt>
<trkpt lat="44.821801740" lon="6.738613450">
  <ele>2428.800048</ele>
<time>2015-09-24T13:23:48Z</time>
</trkpt>
<trkpt lat="44.821746750" lon="6.738525100">
  <ele>2426.000000</ele>
<time>2015-09-24T13:23:56Z</time>
</trkpt>
<trkpt lat="44.821676680" lon="6.738453350">
  <ele>2424.100097</ele>
<time>2015-09-24T13:24:03Z</time>
</trkpt>
<trkpt lat="44.821638460" lon="6.738356790">
  <ele>2422.800048</ele>
<time>2015-09-24T13:24:09Z</time>
</trkpt>
<trkpt lat="44.821583470" lon="6.738258390">
  <ele>2421.000000</ele>
<time>2015-09-24T13:24:16Z</time>
</trkpt>
<trkpt lat="44.821528490" lon="6.738175070">
  <ele>2419.300048</ele>
<time>2015-09-24T13:24:23Z</time>
</trkpt>
<trkpt lat="44.821458420" lon="6.738223350">
  <ele>2418.399902</ele>
<time>2015-09-24T13:24:30Z</time>
</trkpt>
<trkpt lat="44.821375100" lon="6.738190160">
  <ele>2415.699951</ele>
<time>2015-09-24T13:24:39Z</time>
</trkpt>
<trkpt lat="44.821298490" lon="6.738138360">
  <ele>2413.100097</ele>
<time>2015-09-24T13:24:47Z</time>
</trkpt>
<trkpt lat="44.821210140" lon="6.738133330">
  <ele>2411.300048</ele>
<time>2015-09-24T13:24:54Z</time>
</trkpt>
<trkpt lat="44.821145100" lon="6.738070130">
  <ele>2409.100097</ele>
<time>2015-09-24T13:25:01Z</time>
</trkpt>
<trkpt lat="44.821225060" lon="6.738086730">
  <ele>2411.300048</ele>
<time>2015-09-24T13:25:23Z</time>
</trkpt>
<trkpt lat="44.821213330" lon="6.737961670">
  <ele>2406.600097</ele>
<time>2015-09-24T13:25:43Z</time>
</trkpt>
<trkpt lat="44.821138400" lon="6.737893440">
  <ele>2403.199951</ele>
<time>2015-09-24T13:25:54Z</time>
</trkpt>
<trkpt lat="44.821061780" lon="6.737848350">
  <ele>2402.300048</ele>
<time>2015-09-24T13:26:04Z</time>
</trkpt>
<trkpt lat="44.821000090" lon="6.737776770">
  <ele>2400.500000</ele>
<time>2015-09-24T13:26:11Z</time>
</trkpt>
<trkpt lat="44.820916780" lon="6.737816660">
  <ele>2400.100097</ele>
<time>2015-09-24T13:26:30Z</time>
</trkpt>
<trkpt lat="44.820833460" lon="6.737793360">
  <ele>2397.000000</ele>
<time>2015-09-24T13:26:49Z</time>
</trkpt>
<trkpt lat="44.820763390" lon="6.737728490">
  <ele>2393.699951</ele>
<time>2015-09-24T13:27:01Z</time>
</trkpt>
<trkpt lat="44.820711760" lon="6.737625050">
  <ele>2391.399902</ele>
<time>2015-09-24T13:27:15Z</time>
</trkpt>
<trkpt lat="44.820661800" lon="6.737531680">
  <ele>2389.800048</ele>
<time>2015-09-24T13:27:23Z</time>
</trkpt>
<trkpt lat="44.820616710" lon="6.737431770">
  <ele>2387.199951</ele>
<time>2015-09-24T13:27:31Z</time>
</trkpt>
<trkpt lat="44.820600110" lon="6.737325150">
  <ele>2384.800048</ele>
<time>2015-09-24T13:27:39Z</time>
</trkpt>
<trkpt lat="44.820553340" lon="6.737231770">
  <ele>2383.199951</ele>
<time>2015-09-24T13:27:46Z</time>
</trkpt>
<trkpt lat="44.820478400" lon="6.737168410">
  <ele>2382.600097</ele>
<time>2015-09-24T13:27:55Z</time>
</trkpt>
<trkpt lat="44.820443370" lon="6.737058440">
  <ele>2382.600097</ele>
<time>2015-09-24T13:28:02Z</time>
</trkpt>
<trkpt lat="44.820420070" lon="6.736950140">
  <ele>2383.000000</ele>
<time>2015-09-24T13:28:08Z</time>
</trkpt>
<trkpt lat="44.820396760" lon="6.736840000">
  <ele>2383.199951</ele>
<time>2015-09-24T13:28:14Z</time>
</trkpt>
<trkpt lat="44.820366760" lon="6.736723330">
  <ele>2382.300048</ele>
<time>2015-09-24T13:28:21Z</time>
</trkpt>
<trkpt lat="44.820350160" lon="6.736608330">
  <ele>2382.699951</ele>
<time>2015-09-24T13:28:27Z</time>
</trkpt>
<trkpt lat="44.820348490" lon="6.736490140">
  <ele>2385.100097</ele>
<time>2015-09-24T13:28:34Z</time>
</trkpt>
<trkpt lat="44.820305070" lon="6.736386710">
  <ele>2384.899902</ele>
<time>2015-09-24T13:28:41Z</time>
</trkpt>
<trkpt lat="44.820261820" lon="6.736288480">
  <ele>2382.600097</ele>
<time>2015-09-24T13:28:50Z</time>
</trkpt>
<trkpt lat="44.820228460" lon="6.736190070">
  <ele>2381.399902</ele>
<time>2015-09-24T13:28:56Z</time>
</trkpt>
<trkpt lat="44.820183360" lon="6.736098370">
  <ele>2381.000000</ele>
<time>2015-09-24T13:29:02Z</time>
</trkpt>
<trkpt lat="44.820113460" lon="6.736030150">
  <ele>2379.699951</ele>
<time>2015-09-24T13:29:09Z</time>
</trkpt>
<trkpt lat="44.820046740" lon="6.735946830">
  <ele>2377.500000</ele>
<time>2015-09-24T13:29:17Z</time>
</trkpt>
<trkpt lat="44.819973480" lon="6.735911790">
  <ele>2376.100097</ele>
<time>2015-09-24T13:29:23Z</time>
</trkpt>
<trkpt lat="44.819888490" lon="6.735893350">
  <ele>2374.500000</ele>
<time>2015-09-24T13:29:30Z</time>
</trkpt>
<trkpt lat="44.819830150" lon="6.735801820">
  <ele>2372.399902</ele>
<time>2015-09-24T13:29:37Z</time>
</trkpt>
<trkpt lat="44.819783380" lon="6.735700070">
  <ele>2371.399902</ele>
<time>2015-09-24T13:29:44Z</time>
</trkpt>
<trkpt lat="44.819758400" lon="6.735593450">
  <ele>2370.199951</ele>
<time>2015-09-24T13:29:50Z</time>
</trkpt>
<trkpt lat="44.819711800" lon="6.735496720">
  <ele>2370.300048</ele>
<time>2015-09-24T13:29:56Z</time>
</trkpt>
<trkpt lat="44.819646750" lon="6.735431680">
  <ele>2369.100097</ele>
<time>2015-09-24T13:30:02Z</time>
</trkpt>
<trkpt lat="44.819581710" lon="6.735358420">
  <ele>2368.000000</ele>
<time>2015-09-24T13:30:08Z</time>
</trkpt>
<trkpt lat="44.819518340" lon="6.735281810">
  <ele>2367.699951</ele>
<time>2015-09-24T13:30:14Z</time>
</trkpt>
<trkpt lat="44.819440050" lon="6.735245100">
  <ele>2365.800048</ele>
<time>2015-09-24T13:30:20Z</time>
</trkpt>
<trkpt lat="44.819361770" lon="6.735281810">
  <ele>2364.000000</ele>
<time>2015-09-24T13:30:26Z</time>
</trkpt>
<trkpt lat="44.819340140" lon="6.735326740">
  <ele>2359.899902</ele>
<time>2015-09-24T13:30:53Z</time>
</trkpt>
<trkpt lat="44.819340140" lon="6.735326740">
  <ele>2359.899902</ele>
<time>2015-09-24T13:30:53Z</time>
</trkpt>
<trkpt lat="44.819340140" lon="6.735326740">
  <ele>2359.800000</ele>
<time>2015-09-24T13:30:53Z</time>
</trkpt>
<trkpt lat="44.819340140" lon="6.735321710">
  <ele>2360.100000</ele>
<time>2015-09-24T13:30:56Z</time>
</trkpt>
</trkseg>
</trk>
</gpx>
